Time;durP1;ratioP1;P1;durP2;ratioP2;P2;SDS_P1;SDS_P2;PMS_P1;PMS_P2;Temp;Humidity;BMP_temperature;BMP_pressure;BME280_temperature;BME280_humidity;BME280_pressure;Samples;Min_cycle;Max_cycle;Signal;HPM_P1;HPM_P2
2023/08/09 00:00:35;;;;;;;2.25;1.67;;;17.40;1.00;;;;;;7383637;19;20018;-70
2023/08/09 00:03:09;;;;;;;4.38;1.88;;;17.40;1.00;;;;;;7384488;19;20325;-70
2023/08/09 00:05:39;;;;;;;3.33;1.58;;;17.40;1.00;;;;;;7384274;19;20115;-70
2023/08/09 00:08:09;;;;;;;2.83;1.70;;;17.40;1.00;;;;;;7387085;19;20025;-71
2023/08/09 00:10:39;;;;;;;2.70;1.73;;;17.30;1.00;;;;;;7386036;19;20494;-70
2023/08/09 00:13:09;;;;;;;2.80;1.83;;;17.30;1.00;;;;;;7385943;19;20074;-70
2023/08/09 00:15:39;;;;;;;2.40;1.90;;;17.40;1.00;;;;;;7383436;19;20053;-70
2023/08/09 00:18:11;;;;;;;2.10;1.70;;;17.30;1.00;;;;;;7383804;19;20023;-70
2023/08/09 00:20:41;;;;;;;2.60;1.60;;;17.30;1.00;;;;;;7384615;19;20031;-71
2023/08/09 00:23:13;;;;;;;2.13;1.65;;;17.30;1.00;;;;;;7381053;19;20061;-71
2023/08/09 00:25:44;;;;;;;3.33;1.60;;;17.30;1.00;;;;;;7390549;19;20025;-69
2023/08/09 00:28:14;;;;;;;2.30;1.50;;;17.30;1.00;;;;;;7392400;19;20014;-69
2023/08/09 00:30:44;;;;;;;2.65;1.80;;;17.20;1.00;;;;;;7389763;19;20019;-70
2023/08/09 00:33:16;;;;;;;2.83;1.77;;;17.20;1.00;;;;;;7391019;19;20031;-69
2023/08/09 00:35:46;;;;;;;5.82;2.30;;;17.30;1.00;;;;;;7391231;19;20078;-71
2023/08/09 00:38:16;;;;;;;4.30;1.60;;;17.30;1.00;;;;;;7394536;19;20424;-69
2023/08/09 00:40:46;;;;;;;3.13;1.73;;;17.30;1.00;;;;;;7393811;19;20019;-70
2023/08/09 00:43:16;;;;;;;2.42;1.55;;;17.20;1.00;;;;;;7390099;19;20509;-71
2023/08/09 00:45:50;;;;;;;2.40;1.45;;;17.20;1.00;;;;;;7392134;19;20018;-70
2023/08/09 00:48:23;;;;;;;5.33;1.77;;;17.10;1.00;;;;;;7394736;19;20035;-70
2023/08/09 00:50:53;;;;;;;2.90;1.48;;;17.10;1.00;;;;;;7389413;19;20053;-70
2023/08/09 00:53:23;;;;;;;4.03;1.75;;;17.00;1.00;;;;;;7391935;19;20028;-70
2023/08/09 00:55:53;;;;;;;3.38;1.75;;;17.00;1.00;;;;;;7395062;19;20014;-71
2023/08/09 00:58:23;;;;;;;2.45;1.70;;;17.10;1.00;;;;;;7394884;19;20082;-71
2023/08/09 01:00:52;;;;;;;3.28;1.75;;;17.10;1.00;;;;;;7392381;19;20017;-70
2023/08/09 01:03:25;;;;;;;2.20;1.70;;;17.00;1.00;;;;;;7393773;19;20082;-69
2023/08/09 01:06:05;;;;;;;2.67;2.00;;;17.00;1.00;;;;;;7394050;19;20044;-70
2023/08/09 01:08:43;;;;;;;2.75;1.60;;;17.00;1.00;;;;;;7394836;19;20340;-70
2023/08/09 01:11:19;;;;;;;5.38;1.85;;;16.90;1.00;;;;;;7390522;19;20390;-71
2023/08/09 01:13:52;;;;;;;2.53;1.80;;;16.90;1.00;;;;;;7389498;19;20015;-70
2023/08/09 01:16:24;;;;;;;3.15;1.77;;;16.90;1.00;;;;;;7390746;19;20108;-69
2023/08/09 01:18:58;;;;;;;2.45;1.60;;;16.90;1.00;;;;;;7390455;19;20026;-69
2023/08/09 01:21:31;;;;;;;5.70;1.83;;;16.90;1.00;;;;;;7391851;19;20014;-70
2023/08/09 01:24:04;;;;;;;4.50;1.57;;;16.80;1.00;;;;;;7390055;19;20104;-70
2023/08/09 01:26:34;;;;;;;2.53;1.73;;;16.70;1.00;;;;;;7388968;19;20018;-70
2023/08/09 01:29:04;;;;;;;3.15;2.00;;;16.70;1.00;;;;;;7389860;19;20511;-70
2023/08/09 01:31:34;;;;;;;5.25;2.00;;;16.70;1.00;;;;;;7391147;19;20022;-69
2023/08/09 01:34:06;;;;;;;3.75;2.00;;;16.60;1.00;;;;;;7392076;19;20028;-70
2023/08/09 01:36:41;;;;;;;5.28;2.13;;;16.70;1.00;;;;;;7391193;19;20023;-70
2023/08/09 01:39:20;;;;;;;2.40;1.63;;;16.70;1.00;;;;;;7388047;19;20014;-70
2023/08/09 01:41:50;;;;;;;2.97;2.10;;;16.70;1.00;;;;;;7389683;19;20014;-69
2023/08/09 01:44:23;;;;;;;3.38;2.03;;;16.70;1.00;;;;;;7389653;19;20378;-69
2023/08/09 01:46:54;;;;;;;5.03;2.17;;;16.60;1.00;;;;;;7390035;19;20018;-70
2023/08/09 01:49:23;;;;;;;7.30;1.90;;;16.60;1.00;;;;;;7388814;19;20084;-69
2023/08/09 01:51:53;;;;;;;3.47;1.55;;;16.50;1.00;;;;;;7390947;19;20015;-70
2023/08/09 01:54:28;;;;;;;2.20;1.90;;;16.40;1.00;;;;;;7392912;19;20018;-70
2023/08/09 01:57:02;;;;;;;4.40;1.90;;;16.20;1.00;;;;;;7384200;19;20098;-70
2023/08/09 01:59:33;;;;;;;3.72;1.98;;;16.30;1.00;;;;;;7383928;19;20021;-70
2023/08/09 02:02:03;;;;;;;4.22;2.05;;;16.10;1.00;;;;;;7392013;19;20030;-69
2023/08/09 02:04:35;;;;;;;3.08;2.05;;;16.20;1.00;;;;;;7384676;19;20018;-68
2023/08/09 02:07:06;;;;;;;5.35;1.98;;;16.10;1.00;;;;;;7385478;19;20071;-71
2023/08/09 02:09:38;;;;;;;3.75;2.17;;;16.20;1.00;;;;;;7391803;19;20014;-68
2023/08/09 02:12:09;;;;;;;4.53;2.10;;;16.20;1.00;;;;;;7393197;19;20034;-69
2023/08/09 02:14:40;;;;;;;3.75;2.25;;;16.20;1.00;;;;;;7391357;19;20073;-69
2023/08/09 02:17:10;;;;;;;3.50;1.90;;;16.20;1.00;;;;;;7389181;19;20018;-70
2023/08/09 02:19:40;;;;;;;4.47;2.05;;;16.20;1.00;;;;;;7391873;19;20065;-69
2023/08/09 02:22:12;;;;;;;3.50;2.00;;;16.20;1.00;;;;;;7393162;19;20370;-70
2023/08/09 02:24:45;;;;;;;3.15;2.03;;;16.10;1.00;;;;;;7390189;19;20605;-69
2023/08/09 02:27:15;;;;;;;3.03;1.77;;;16.20;1.00;;;;;;7389139;19;20341;-69
2023/08/09 02:29:46;;;;;;;3.97;2.20;;;16.10;1.00;;;;;;7392082;19;20070;-69
2023/08/09 02:32:17;;;;;;;4.78;2.22;;;16.10;1.00;;;;;;7389629;19;20538;-69
2023/08/09 02:34:47;;;;;;;2.20;1.95;;;16.20;1.00;;;;;;7391455;19;20025;-68
2023/08/09 02:37:17;;;;;;;2.65;2.10;;;16.10;1.00;;;;;;7385531;19;20492;-69
2023/08/09 02:39:49;;;;;;;2.25;1.92;;;16.20;1.00;;;;;;7390332;19;20018;-68
2023/08/09 02:42:19;;;;;;;4.72;2.45;;;16.10;1.00;;;;;;7391736;19;20501;-69
2023/08/09 02:44:49;;;;;;;3.00;2.10;;;16.10;1.00;;;;;;7389661;19;20090;-69
2023/08/09 02:47:19;;;;;;;3.47;2.47;;;16.00;1.00;;;;;;7388685;19;20044;-69
2023/08/09 02:49:49;;;;;;;3.78;2.05;;;16.10;1.00;;;;;;7390869;19;20646;-69
2023/08/09 02:52:19;;;;;;;4.20;1.88;;;16.10;1.00;;;;;;7386084;19;20011;-69
2023/08/09 02:54:51;;;;;;;4.07;2.50;;;16.10;1.00;;;;;;7387229;19;20014;-69
2023/08/09 02:57:21;;;;;;;4.22;2.22;;;16.10;1.00;;;;;;7388036;19;20058;-69
2023/08/09 02:59:51;;;;;;;4.15;2.13;;;15.90;1.00;;;;;;7386346;19;20024;-69
2023/08/09 03:02:21;;;;;;;3.70;2.22;;;16.00;1.00;;;;;;7387330;19;20118;-70
2023/08/09 03:04:51;;;;;;;3.65;2.00;;;16.10;1.00;;;;;;7386679;19;20018;-68
2023/08/09 03:07:21;;;;;;;5.88;2.72;;;16.10;1.00;;;;;;7388303;19;20022;-70
2023/08/09 03:09:53;;;;;;;3.55;2.22;;;16.10;1.00;;;;;;7386662;19;20043;-70
2023/08/09 03:12:23;;;;;;;5.80;2.50;;;16.10;1.00;;;;;;7387711;19;20010;-69
2023/08/09 03:14:53;;;;;;;3.03;2.22;;;16.10;1.00;;;;;;7390807;19;20036;-70
2023/08/09 03:17:23;;;;;;;5.95;2.40;;;16.10;1.00;;;;;;7388545;19;20014;-69
2023/08/09 03:19:53;;;;;;;4.22;2.20;;;16.10;1.00;;;;;;7383547;19;20022;-69
2023/08/09 03:22:23;;;;;;;5.07;2.50;;;16.10;1.00;;;;;;7387212;19;20018;-70
2023/08/09 03:24:55;;;;;;;5.50;2.63;;;16.10;1.00;;;;;;7385894;19;20081;-70
2023/08/09 03:27:25;;;;;;;3.20;2.40;;;16.10;1.00;;;;;;7387334;19;20022;-69
2023/08/09 03:29:55;;;;;;;3.78;2.45;;;16.10;1.00;;;;;;7384404;19;20086;-69
2023/08/09 03:32:25;;;;;;;3.35;2.60;;;16.10;1.00;;;;;;7386930;19;20020;-69
2023/08/09 03:34:55;;;;;;;5.78;2.40;;;16.10;1.00;;;;;;7385256;19;20019;-69
2023/08/09 03:37:25;;;;;;;3.05;2.15;;;16.10;1.00;;;;;;7386143;19;20478;-70
2023/08/09 03:39:57;;;;;;;2.70;2.00;;;16.00;1.00;;;;;;7383951;19;20094;-70
2023/08/09 03:42:27;;;;;;;3.20;2.33;;;16.00;1.00;;;;;;7386157;19;20028;-71
2023/08/09 03:44:57;;;;;;;6.07;2.15;;;16.00;1.00;;;;;;7385814;19;20035;-71
2023/08/09 03:47:27;;;;;;;2.55;2.28;;;16.00;1.00;;;;;;7389190;19;20112;-71
2023/08/09 03:49:57;;;;;;;5.20;2.45;;;16.10;1.00;;;;;;7384542;19;20036;-70
2023/08/09 03:52:27;;;;;;;3.75;2.38;;;16.00;1.00;;;;;;7384733;19;20014;-70
2023/08/09 03:55:00;;;;;;;4.18;2.13;;;16.00;1.00;;;;;;7384445;19;20085;-70
2023/08/09 03:57:29;;;;;;;3.90;2.22;;;16.00;1.00;;;;;;7385320;19;20114;-71
2023/08/09 04:00:00;;;;;;;2.80;2.25;;;16.00;1.00;;;;;;7384524;19;20107;-70
2023/08/09 04:02:31;;;;;;;4.90;2.60;;;16.00;1.00;;;;;;7384877;19;20025;-71
2023/08/09 04:05:01;;;;;;;2.83;2.03;;;16.00;1.00;;;;;;7384879;19;20022;-71
2023/08/09 04:07:31;;;;;;;6.50;2.47;;;16.00;1.00;;;;;;7385908;19;20018;-69
2023/08/09 04:10:03;;;;;;;5.28;2.13;;;16.00;1.00;;;;;;7385609;19;20017;-70
2023/08/09 04:12:33;;;;;;;4.45;2.50;;;16.00;1.00;;;;;;7387742;19;20018;-70
2023/08/09 04:15:03;;;;;;;3.92;2.20;;;15.90;1.00;;;;;;7384617;19;20100;-70
2023/08/09 04:17:33;;;;;;;3.53;2.53;;;16.00;1.00;;;;;;7384749;19;20035;-69
2023/08/09 04:20:03;;;;;;;4.43;2.08;;;16.00;1.00;;;;;;7384024;19;20039;-70
2023/08/09 04:22:33;;;;;;;3.40;2.30;;;16.00;1.00;;;;;;7385106;19;20014;-70
2023/08/09 04:25:10;;;;;;;2.47;2.20;;;16.10;1.00;;;;;;7384446;19;20078;-70
2023/08/09 04:27:41;;;;;;;3.47;2.13;;;16.10;1.00;;;;;;7386609;19;20491;-70
2023/08/09 04:30:12;;;;;;;4.43;2.00;;;16.10;1.00;;;;;;7381838;19;20014;-70
2023/08/09 04:32:42;;;;;;;3.25;1.85;;;16.10;1.00;;;;;;7384261;19;20092;-69
2023/08/09 04:35:12;;;;;;;5.63;2.15;;;16.10;1.00;;;;;;7384010;19;20023;-70
2023/08/09 04:37:42;;;;;;;2.72;2.08;;;16.20;1.00;;;;;;7386190;19;20085;-71
2023/08/09 04:40:15;;;;;;;3.30;1.83;;;16.20;1.00;;;;;;7383128;19;20018;-70
2023/08/09 04:42:47;;;;;;;2.03;1.60;;;16.30;1.00;;;;;;7382579;19;20018;-70
2023/08/09 04:45:17;;;;;;;1.92;1.65;;;16.30;1.00;;;;;;7383396;19;20017;-71
2023/08/09 04:47:48;;;;;;;3.88;1.73;;;16.40;1.00;;;;;;7385628;19;20364;-70
2023/08/09 04:50:17;;;;;;;4.45;1.90;;;16.40;1.00;;;;;;7380538;19;20049;-71
2023/08/09 04:52:47;;;;;;;2.40;1.30;;;16.60;1.00;;;;;;7382702;19;20018;-70
2023/08/09 04:55:21;;;;;;;2.95;1.70;;;16.70;1.00;;;;;;7376351;19;20018;-72
2023/08/09 04:57:51;;;;;;;3.03;1.90;;;16.70;1.00;;;;;;7385087;19;20018;-70
2023/08/09 05:00:21;;;;;;;3.35;1.58;;;16.80;1.00;;;;;;7383401;19;20026;-70
2023/08/09 05:02:51;;;;;;;3.67;1.92;;;16.80;1.00;;;;;;7383050;19;20479;-70
2023/08/09 05:05:21;;;;;;;2.17;1.63;;;16.90;1.00;;;;;;7384609;19;20017;-71
2023/08/09 05:07:51;;;;;;;4.10;1.70;;;16.90;1.00;;;;;;7389978;19;20014;-71
2023/08/09 05:10:23;;;;;;;2.38;1.70;;;16.90;1.00;;;;;;7388920;19;20394;-70
2023/08/09 05:12:53;;;;;;;5.22;1.60;;;16.90;1.00;;;;;;7393300;19;20481;-70
2023/08/09 05:15:23;;;;;;;3.83;1.58;;;16.90;1.00;;;;;;7389094;19;20018;-70
2023/08/09 05:17:53;;;;;;;2.47;1.70;;;16.90;1.00;;;;;;7390828;19;20351;-71
2023/08/09 05:20:23;;;;;;;3.22;1.88;;;17.00;1.00;;;;;;7388690;19;20519;-70
2023/08/09 05:22:53;;;;;;;2.88;1.85;;;17.00;1.00;;;;;;7387861;19;20022;-70
2023/08/09 05:25:26;;;;;;;2.42;1.67;;;17.00;1.00;;;;;;7389047;19;20497;-70
2023/08/09 05:27:56;;;;;;;4.25;1.85;;;17.10;1.00;;;;;;7391385;19;20043;-70
2023/08/09 05:30:26;;;;;;;3.42;1.83;;;17.10;1.00;;;;;;7387492;19;20082;-71
2023/08/09 05:32:58;;;;;;;2.25;1.67;;;17.10;1.00;;;;;;7385942;19;20026;-70
2023/08/09 05:35:29;;;;;;;5.70;1.88;;;17.20;1.00;;;;;;7389480;19;20047;-72
2023/08/09 05:37:59;;;;;;;3.88;1.70;;;17.20;1.00;;;;;;7391745;19;20024;-71
2023/08/09 05:40:31;;;;;;;4.72;1.90;;;17.30;1.00;;;;;;7387651;19;20093;-70
2023/08/09 05:43:01;;;;;;;4.45;1.60;;;17.40;1.00;;;;;;7388495;19;20558;-72
2023/08/09 05:45:31;;;;;;;2.47;1.55;;;17.50;1.00;;;;;;7388689;19;20455;-70
2023/08/09 05:48:01;;;;;;;3.35;1.45;;;17.60;1.00;;;;;;7391257;19;20087;-70
2023/08/09 05:50:31;;;;;;;4.25;1.80;;;17.70;1.00;;;;;;7386801;19;20018;-70
2023/08/09 05:53:01;;;;;;;2.53;1.65;;;17.80;1.00;;;;;;7388242;19;20526;-70
2023/08/09 05:55:33;;;;;;;4.57;1.60;;;17.90;1.00;;;;;;7388331;19;20100;-72
2023/08/09 05:58:03;;;;;;;1.50;1.23;;;18.10;1.00;;;;;;7388646;19;20018;-70
2023/08/09 06:00:33;;;;;;;2.92;1.30;;;18.00;1.00;;;;;;7389399;19;20097;-69
2023/08/09 06:03:03;;;;;;;2.53;1.50;;;18.20;1.00;;;;;;7392733;19;20605;-69
2023/08/09 06:05:34;;;;;;;2.88;1.40;;;18.20;1.00;;;;;;7387896;19;20023;-72
2023/08/09 06:08:04;;;;;;;4.78;1.80;;;18.30;1.00;;;;;;7389832;19;20019;-71
2023/08/09 06:10:36;;;;;;;2.47;1.30;;;18.40;1.00;;;;;;7386252;19;20078;-70
2023/08/09 06:13:06;;;;;;;4.32;1.38;;;18.50;1.00;;;;;;7391976;19;20597;-71
2023/08/09 06:15:36;;;;;;;4.72;1.63;;;18.40;1.00;;;;;;7386404;19;20022;-71
2023/08/09 06:18:07;;;;;;;5.25;1.48;;;18.20;1.00;;;;;;7388519;19;20046;-70
2023/08/09 06:20:37;;;;;;;4.20;1.42;;;18.20;1.00;;;;;;7385961;19;20022;-70
2023/08/09 06:23:07;;;;;;;2.33;1.35;;;18.30;1.00;;;;;;7387048;19;20554;-70
2023/08/09 06:25:40;;;;;;;4.38;1.55;;;18.40;1.00;;;;;;7386963;19;20024;-71
2023/08/09 06:28:11;;;;;;;3.40;1.35;;;18.50;1.00;;;;;;7389062;19;20014;-71
2023/08/09 06:30:41;;;;;;;4.10;1.35;;;18.60;1.00;;;;;;7386344;19;20389;-70
2023/08/09 06:33:11;;;;;;;4.00;1.88;;;18.50;1.00;;;;;;7388003;19;20048;-70
2023/08/09 06:35:41;;;;;;;4.28;1.55;;;18.50;1.00;;;;;;7385831;19;20033;-70
2023/08/09 06:38:11;;;;;;;5.60;2.13;;;18.50;1.00;;;;;;7388500;19;20078;-70
2023/08/09 06:40:47;;;;;;;3.28;1.55;;;18.40;1.00;;;;;;7385066;19;20019;-70
2023/08/09 06:43:17;;;;;;;2.17;1.38;;;18.30;1.00;;;;;;7386626;19;20021;-70
2023/08/09 06:45:48;;;;;;;3.10;1.45;;;18.20;1.00;;;;;;7388558;19;20075;-71
2023/08/09 06:48:18;;;;;;;3.28;1.50;;;18.20;1.00;;;;;;7388523;19;20015;-71
2023/08/09 06:50:50;;;;;;;4.85;1.40;;;18.20;1.00;;;;;;7385664;19;20031;-70
2023/08/09 06:53:20;;;;;;;4.03;1.40;;;18.20;1.00;;;;;;7387379;19;20078;-71
2023/08/09 06:55:53;;;;;;;2.70;1.60;;;18.10;1.00;;;;;;7385816;19;20057;-70
2023/08/09 06:58:24;;;;;;;4.60;1.38;;;18.20;1.00;;;;;;7387949;19;20020;-71
2023/08/09 07:00:56;;;;;;;3.22;1.67;;;18.20;1.00;;;;;;7385088;19;20510;-71
2023/08/09 07:03:26;;;;;;;4.97;1.52;;;18.30;1.00;;;;;;7386046;19;20518;-70
2023/08/09 07:05:57;;;;;;;4.10;1.50;;;18.50;1.00;;;;;;7385592;19;20086;-70
2023/08/09 07:08:27;;;;;;;2.70;1.50;;;18.50;1.00;;;;;;7386901;19;20689;-69
2023/08/09 07:10:59;;;;;;;2.80;1.73;;;18.70;1.00;;;;;;7384406;19;20077;-71
2023/08/09 07:13:29;;;;;;;2.50;1.50;;;18.70;1.00;;;;;;7389971;19;20027;-70
2023/08/09 07:15:59;;;;;;;4.78;1.90;;;18.70;1.00;;;;;;7385616;19;20031;-70
2023/08/09 07:18:29;;;;;;;3.88;1.38;;;18.70;1.00;;;;;;7388134;19;20026;-70
2023/08/09 07:20:59;;;;;;;2.63;1.55;;;18.60;1.00;;;;;;7385154;19;20773;-71
2023/08/09 07:23:29;;;;;;;3.00;1.60;;;18.70;1.00;;;;;;7383078;19;20803;-70
2023/08/09 07:26:22;;;;;;;2.80;1.60;;;18.60;1.00;;;;;;7385072;19;20022;-70
2023/08/09 07:28:52;;;;;;;5.32;1.77;;;18.70;1.00;;;;;;7389185;19;20494;-71
2023/08/09 07:31:23;;;;;;;8.23;4.30;;;18.70;1.00;;;;;;7383394;19;20014;-70
2023/08/09 07:33:53;;;;;;;2.63;1.70;;;18.80;1.00;;;;;;7385347;19;20025;-69
2023/08/09 07:36:24;;;;;;;6.28;1.42;;;18.80;1.00;;;;;;7385261;19;20010;-71
2023/08/09 07:38:57;;;;;;;4.07;1.40;;;18.90;1.00;;;;;;7388153;19;20043;-70
2023/08/09 07:41:29;;;;;;;3.40;1.80;;;19.00;1.00;;;;;;7382251;19;20090;-71
2023/08/09 07:43:59;;;;;;;3.00;1.50;;;19.00;1.00;;;;;;7384977;19;20493;-70
2023/08/09 07:46:29;;;;;;;2.72;1.40;;;19.00;1.00;;;;;;7386795;19;20078;-72
2023/08/09 07:49:03;;;;;;;3.92;1.40;;;19.10;1.00;;;;;;7386500;19;20048;-71
2023/08/09 07:51:33;;;;;;;5.03;1.60;;;19.00;1.00;;;;;;7383011;19;20392;-70
2023/08/09 07:54:03;;;;;;;4.65;2.00;;;19.10;1.00;;;;;;7385656;19;20014;-70
2023/08/09 07:56:36;;;;;;;3.13;1.60;;;19.10;1.00;;;;;;7389035;19;20023;-71
2023/08/09 07:59:06;;;;;;;3.25;1.42;;;18.80;1.00;;;;;;7387297;19;20021;-72
2023/08/09 08:01:36;;;;;;;3.03;1.50;;;18.80;1.00;;;;;;7382047;19;20031;-72
2023/08/09 08:04:06;;;;;;;2.22;1.30;;;18.70;1.00;;;;;;7383852;19;20483;-71
2023/08/09 08:06:36;;;;;;;5.47;2.28;;;18.70;1.00;;;;;;7384613;19;20019;-71
2023/08/09 08:09:12;;;;;;;4.72;2.08;;;18.70;1.00;;;;;;7386288;19;20014;-70
2023/08/09 08:11:46;;;;;;;3.22;1.55;;;18.70;1.00;;;;;;7384006;19;20011;-71
2023/08/09 08:14:16;;;;;;;3.67;1.50;;;18.60;1.00;;;;;;7388044;19;20014;-71
2023/08/09 08:16:46;;;;;;;2.92;1.67;;;18.60;1.00;;;;;;7383673;19;20068;-71
2023/08/09 08:19:16;;;;;;;5.00;1.75;;;18.60;1.00;;;;;;7386786;19;20014;-70
2023/08/09 08:21:46;;;;;;;4.38;1.50;;;18.50;1.00;;;;;;7382523;19;20035;-71
2023/08/09 08:24:16;;;;;;;3.42;1.70;;;18.50;1.00;;;;;;7384083;19;20026;-71
2023/08/09 08:26:53;;;;;;;3.65;1.73;;;18.50;1.00;;;;;;7383272;19;20541;-72
2023/08/09 08:29:23;;;;;;;2.30;1.50;;;18.40;1.00;;;;;;7386070;19;20040;-71
2023/08/09 08:31:54;;;;;;;5.43;2.10;;;18.50;1.00;;;;;;7381212;19;20101;-70
2023/08/09 08:34:24;;;;;;;4.63;1.83;;;18.40;1.00;;;;;;7383096;19;20019;-71
2023/08/09 08:36:54;;;;;;;6.50;1.90;;;18.40;1.00;;;;;;7383629;19;20477;-72
2023/08/09 08:39:24;;;;;;;2.70;1.95;;;18.40;1.00;;;;;;7385905;19;20015;-71
2023/08/09 08:41:57;;;;;;;4.75;1.80;;;18.40;1.00;;;;;;7384924;19;20032;-71
2023/08/09 08:44:27;;;;;;;5.85;1.90;;;18.50;1.00;;;;;;7389271;19;20061;-71
2023/08/09 08:46:57;;;;;;;3.08;1.70;;;18.30;1.00;;;;;;7396990;19;20039;-72
2023/08/09 08:49:29;;;;;;;5.63;1.98;;;18.30;1.00;;;;;;7391338;19;20015;-72
2023/08/09 08:52:02;;;;;;;3.83;1.75;;;18.20;1.00;;;;;;7392642;19;20018;-70
2023/08/09 08:54:33;;;;;;;4.55;1.75;;;18.20;1.00;;;;;;7390925;19;20013;-71
2023/08/09 08:57:07;;;;;;;3.22;1.80;;;18.40;1.00;;;;;;7391095;19;20007;-71
2023/08/09 08:59:37;;;;;;;;;;;18.40;1.00;;;;;;7392771;19;20015;-70
2023/08/09 09:02:08;;;;;;;8.60;1.80;;;18.50;1.00;;;;;;7391242;19;19910;-71
2023/08/09 09:04:38;;;;;;;4.47;1.52;;;18.40;1.00;;;;;;7389180;19;20566;-72
2023/08/09 09:07:10;;;;;;;3.42;1.50;;;18.40;1.00;;;;;;7391100;19;20045;-71
2023/08/09 09:09:46;;;;;;;3.90;1.50;;;18.40;1.00;;;;;;7393699;19;20017;-72
2023/08/09 09:12:22;;;;;;;5.50;1.75;;;18.30;1.00;;;;;;7391559;19;20292;-72
2023/08/09 09:14:53;;;;;;;4.97;1.90;;;18.30;1.00;;;;;;7389764;19;20374;-72
2023/08/09 09:17:24;;;;;;;4.47;1.98;;;18.20;1.00;;;;;;7388612;19;20022;-72
2023/08/09 09:19:55;;;;;;;3.80;1.90;;;18.30;1.00;;;;;;7388263;19;20015;-72
2023/08/09 09:22:29;;;;;;;7.55;2.35;;;18.30;1.00;;;;;;7390569;19;20467;-72
2023/08/09 09:25:02;;;;;;;5.85;2.05;;;18.30;1.00;;;;;;7390335;19;20014;-71
2023/08/09 09:27:36;;;;;;;3.80;2.00;;;18.30;1.00;;;;;;7386444;19;20022;-71
2023/08/09 09:30:12;;;;;;;3.17;1.90;;;18.60;1.00;;;;;;7388236;19;20015;-72
2023/08/09 09:32:43;;;;;;;2.63;1.98;;;18.60;1.00;;;;;;7388334;19;20018;-71
2023/08/09 09:35:13;;;;;;;6.75;1.70;;;18.60;1.00;;;;;;7389463;19;20017;-71
2023/08/09 09:37:43;;;;;;;4.45;1.95;;;18.70;1.00;;;;;;7388828;19;20015;-72
2023/08/09 09:40:22;;;;;;;3.88;1.50;;;18.60;1.00;;;;;;7387626;19;20022;-70
2023/08/09 09:42:57;;;;;;;4.32;1.45;;;18.60;1.00;;;;;;7389273;19;20022;-69
2023/08/09 09:45:28;;;;;;;4.88;1.73;;;18.90;1.00;;;;;;7389799;19;20013;-72
2023/08/09 09:48:00;;;;;;;7.25;2.30;;;19.00;1.00;;;;;;7390735;19;20047;-71
2023/08/09 09:50:33;;;;;;;3.75;1.75;;;18.80;1.00;;;;;;7387896;19;20018;-70
2023/08/09 09:53:04;;;;;;;4.00;1.98;;;18.70;1.00;;;;;;7385168;19;20033;-71
2023/08/09 09:55:35;;;;;;;7.03;1.70;;;18.70;1.00;;;;;;7388532;19;20027;-71
2023/08/09 09:58:08;;;;;;;3.65;2.13;;;18.60;1.00;;;;;;7390788;19;20014;-72
2023/08/09 10:00:41;;;;;;;7.25;1.92;;;18.70;1.00;;;;;;7388075;19;20018;-72
2023/08/09 10:03:13;;;;;;;5.20;1.88;;;18.70;1.00;;;;;;7389157;19;20078;-71
2023/08/09 10:05:47;;;;;;;5.85;2.17;;;18.40;1.00;;;;;;7391794;19;20373;-72
2023/08/09 10:08:19;;;;;;;4.15;2.10;;;18.30;1.00;;;;;;7390620;19;20030;-71
2023/08/09 10:10:54;;;;;;;3.90;2.40;;;18.00;1.00;;;;;;7391278;19;20451;-72
2023/08/09 10:13:27;;;;;;;7.07;2.40;;;18.00;1.00;;;;;;7389777;19;20408;-71
2023/08/09 10:15:59;;;;;;;4.50;2.10;;;17.80;1.00;;;;;;7392744;19;20483;-72
2023/08/09 10:18:35;;;;;;;7.00;2.70;;;17.40;1.00;;;;;;7387240;19;20645;-71
2023/08/09 10:21:06;;;;;;;4.13;2.40;;;17.40;1.00;;;;;;7391647;19;20011;-72
2023/08/09 10:23:36;;;;;;;5.15;2.83;;;17.20;1.00;;;;;;7390343;19;20051;-72
2023/08/09 10:26:06;;;;;;;5.20;2.75;;;17.20;1.00;;;;;;7392331;19;20035;-72
2023/08/09 10:28:54;;;;;;;7.78;3.42;;;17.30;1.00;;;;;;7393667;19;20050;-72
2023/08/09 10:31:51;;;;;;;6.25;2.80;;;17.40;1.00;;;;;;7406964;19;20046;-72
2023/08/09 10:34:22;;;;;;;4.57;3.78;;;17.40;1.00;;;;;;7407204;19;20022;-70
2023/08/09 10:36:55;;;;;;;4.85;3.03;;;17.60;1.00;;;;;;7393352;19;20015;-71
2023/08/09 10:39:26;;;;;;;5.95;3.78;;;17.50;1.00;;;;;;7391546;19;20014;-71
2023/08/09 10:42:01;;;;;;;6.03;3.97;;;17.30;1.00;;;;;;7389003;19;20022;-71
2023/08/09 10:44:41;;;;;;;4.85;3.70;;;17.50;9.60;;;;;;7388749;19;20014;-71
2023/08/09 10:47:13;;;;;;;5.43;3.60;;;17.40;4.40;;;;;;7390018;19;20022;-70
2023/08/09 10:50:00;;;;;;;5.00;3.50;;;17.30;5.30;;;;;;7388256;19;20014;-71
2023/08/09 10:52:36;;;;;;;4.65;3.40;;;17.40;7.60;;;;;;7388716;19;20006;-71
2023/08/09 10:55:33;;;;;;;7.30;3.47;;;17.50;8.30;;;;;;7389723;19;20353;-70
2023/08/09 10:58:03;;;;;;;5.53;3.10;;;17.50;6.80;;;;;;7386666;19;20014;-72
2023/08/09 11:00:43;;;;;;;3.83;2.70;;;17.50;1.00;;;;;;7388498;19;20014;-73
2023/08/09 11:03:14;;;;;;;5.07;3.10;;;17.80;8.80;;;;;;7389401;19;20526;-73
2023/08/09 11:05:45;;;;;;;8.80;2.90;;;18.20;7.70;;;;;;7388465;19;20035;-71
2023/08/09 11:08:20;;;;;;;4.30;3.30;;;18.20;1.00;;;;;;7387186;19;20022;-73
2023/08/09 11:10:52;;;;;;;6.55;3.17;;;18.20;1.00;;;;;;7387556;19;20015;-73
2023/08/09 11:13:22;;;;;;;4.28;2.80;;;18.70;1.00;;;;;;7387219;19;20373;-72
2023/08/09 11:15:57;;;;;;;7.63;3.38;;;18.60;1.00;;;;;;7389776;19;20015;-72
2023/08/09 11:18:27;;;;;;;7.00;3.35;;;18.70;1.00;;;;;;7387745;19;20018;-72
2023/08/09 11:20:57;;;;;;;4.60;2.80;;;19.00;1.00;;;;;;7387887;19;20047;-73
2023/08/09 11:23:27;;;;;;;5.53;2.72;;;19.00;1.00;;;;;;7382814;19;20475;-71
2023/08/09 11:25:58;;;;;;;4.55;2.67;;;19.50;1.00;;;;;;7384715;19;20018;-71
2023/08/09 11:28:29;;;;;;;4.20;3.00;;;19.60;1.00;;;;;;7384568;19;20706;-71
2023/08/09 11:31:01;;;;;;;5.18;2.83;;;19.70;1.00;;;;;;7384460;19;20354;-73
2023/08/09 11:33:32;;;;;;;4.07;2.50;;;19.70;1.00;;;;;;7381614;19;20103;-72
2023/08/09 11:36:02;;;;;;;5.32;2.75;;;19.40;1.00;;;;;;7386666;19;20071;-72
2023/08/09 11:38:31;;;;;;;6.28;2.72;;;19.50;1.00;;;;;;7384416;19;20018;-73
2023/08/09 11:41:02;;;;;;;4.72;2.90;;;19.90;1.00;;;;;;7387539;19;20006;-74
2023/08/09 11:43:33;;;;;;;6.95;2.63;;;19.90;1.00;;;;;;7384076;19;20014;-72
2023/08/09 11:46:05;;;;;;;6.25;2.80;;;19.90;1.00;;;;;;7385327;19;20099;-73
2023/08/09 11:48:37;;;;;;;3.75;2.40;;;19.70;1.00;;;;;;7384699;19;20090;-73
2023/08/09 11:51:09;;;;;;;4.32;2.67;;;19.70;1.00;;;;;;7384000;19;20014;-72
2023/08/09 11:53:41;;;;;;;5.32;2.55;;;20.00;1.00;;;;;;7382850;19;20381;-72
2023/08/09 11:56:18;;;;;;;4.18;2.30;;;20.00;1.00;;;;;;7385253;19;20039;-72
2023/08/09 11:58:51;;;;;;;4.50;2.35;;;20.40;1.00;;;;;;7387184;19;20014;-72
2023/08/09 12:01:25;;;;;;;3.67;2.40;;;20.60;1.00;;;;;;7387852;19;20117;-72
2023/08/09 12:03:56;;;;;;;4.03;2.35;;;20.50;1.00;;;;;;7387995;19;20144;-70
2023/08/09 12:06:38;;;;;;;3.95;2.63;;;21.00;1.00;;;;;;7386625;19;20035;-72
2023/08/09 12:09:26;;;;;;;3.00;2.20;;;21.40;1.00;;;;;;7386102;19;20014;-73
2023/08/09 12:11:56;;;;;;;4.47;2.15;;;21.00;1.00;;;;;;7388004;19;20077;-72
2023/08/09 12:14:26;;;;;;;2.63;2.22;;;21.00;1.00;;;;;;7386694;19;20017;-71
2023/08/09 12:16:59;;;;;;;2.85;1.98;;;21.20;1.00;;;;;;7380072;19;20018;-72
2023/08/09 12:19:29;;;;;;;3.75;2.10;;;21.00;1.00;;;;;;7384722;19;20018;-72
2023/08/09 12:22:00;;;;;;;3.85;1.90;;;20.80;1.00;;;;;;7386112;19;20538;-71
2023/08/09 12:24:30;;;;;;;4.18;1.90;;;21.20;1.00;;;;;;7387377;19;20550;-72
2023/08/09 12:27:01;;;;;;;5.10;1.65;;;21.80;1.00;;;;;;7386602;19;20041;-72
2023/08/09 12:29:33;;;;;;;3.10;1.70;;;20.80;1.00;;;;;;7383805;19;20014;-72
2023/08/09 12:32:07;;;;;;;6.03;1.77;;;20.90;1.00;;;;;;7386889;19;20038;-71
2023/08/09 12:34:37;;;;;;;6.85;1.98;;;20.70;1.00;;;;;;7384041;19;20007;-71
2023/08/09 12:37:09;;;;;;;3.30;2.00;;;20.80;1.00;;;;;;7385488;19;20015;-71
2023/08/09 12:39:38;;;;;;;3.15;1.98;;;20.80;1.00;;;;;;7384999;19;20014;-71
2023/08/09 12:42:08;;;;;;;2.33;1.65;;;20.90;1.00;;;;;;7386835;19;20369;-70
2023/08/09 12:44:39;;;;;;;4.35;1.60;;;21.00;1.00;;;;;;7381351;19;20017;-71
2023/08/09 12:47:11;;;;;;;3.33;1.70;;;21.10;1.00;;;;;;7385927;19;20103;-73
2023/08/09 12:49:43;;;;;;;2.38;1.63;;;21.20;1.00;;;;;;7385135;19;20019;-72
2023/08/09 12:52:13;;;;;;;7.35;1.67;;;21.10;1.00;;;;;;7383482;19;20015;-72
2023/08/09 12:54:43;;;;;;;2.65;1.52;;;20.80;1.00;;;;;;7380347;19;20006;-71
2023/08/09 12:57:13;;;;;;;4.28;1.67;;;21.10;1.00;;;;;;7379985;19;20088;-72
2023/08/09 12:59:44;;;;;;;3.85;1.80;;;21.20;1.00;;;;;;7383819;19;20121;-72
2023/08/09 13:02:17;;;;;;;3.03;1.75;;;21.00;1.00;;;;;;7378984;19;20439;-71
2023/08/09 13:04:47;;;;;;;4.90;1.75;;;21.20;1.00;;;;;;7382927;19;20018;-71
2023/08/09 13:07:17;;;;;;;1.92;1.50;;;20.80;1.00;;;;;;7384397;19;20019;-72
2023/08/09 13:09:47;;;;;;;3.38;1.63;;;21.10;1.00;;;;;;7383595;19;20094;-71
2023/08/09 13:12:21;;;;;;;5.07;2.55;;;21.30;1.00;;;;;;7384258;19;20455;-71
2023/08/09 13:14:51;;;;;;;1.88;1.63;;;21.50;1.00;;;;;;7381108;19;20018;-70
2023/08/09 13:17:24;;;;;;;5.90;1.90;;;21.10;1.00;;;;;;7385413;19;20014;-72
2023/08/09 13:19:54;;;;;;;3.33;1.95;;;21.70;1.00;;;;;;7384845;19;20035;-70